sensor_id;sensor_type;location;lat;lon;timestamp;temperature;humidity
9466;DHT22;4771;48.726;9.006;2023-07-20T00:00:06;19.40;89.50
9466;DHT22;4771;48.726;9.006;2023-07-20T00:02:34;19.40;91.00
9466;DHT22;4771;48.726;9.006;2023-07-20T00:05:01;19.30;90.80
9466;DHT22;4771;48.726;9.006;2023-07-20T00:07:28;19.30;91.40
9466;DHT22;4771;48.726;9.006;2023-07-20T00:09:55;19.30;91.40
9466;DHT22;4771;48.726;9.006;2023-07-20T00:12:22;19.20;92.50
9466;DHT22;4771;48.726;9.006;2023-07-20T00:14:51;19.20;93.10
9466;DHT22;4771;48.726;9.006;2023-07-20T00:17:19;19.20;93.80
9466;DHT22;4771;48.726;9.006;2023-07-20T00:19:46;19.20;94.40
9466;DHT22;4771;48.726;9.006;2023-07-20T00:22:12;19.10;94.80
9466;DHT22;4771;48.726;9.006;2023-07-20T00:24:39;19.10;95.50
9466;DHT22;4771;48.726;9.006;2023-07-20T00:27:06;19.10;95.50
9466;DHT22;4771;48.726;9.006;2023-07-20T00:29:33;19.00;94.70
9466;DHT22;4771;48.726;9.006;2023-07-20T00:32:02;19.00;95.00
9466;DHT22;4771;48.726;9.006;2023-07-20T00:34:30;19.00;94.30
9466;DHT22;4771;48.726;9.006;2023-07-20T00:36:57;19.00;94.70
9466;DHT22;4771;48.726;9.006;2023-07-20T00:39:24;19.00;95.00
9466;DHT22;4771;48.726;9.006;2023-07-20T00:41:51;19.00;95.50
9466;DHT22;4771;48.726;9.006;2023-07-20T00:44:18;18.90;95.80
9466;DHT22;4771;48.726;9.006;2023-07-20T00:46:45;18.90;95.70
9466;DHT22;4771;48.726;9.006;2023-07-20T00:49:13;18.80;96.00
9466;DHT22;4771;48.726;9.006;2023-07-20T00:51:41;18.80;96.30
9466;DHT22;4771;48.726;9.006;2023-07-20T00:54:08;18.80;96.90
9466;DHT22;4771;48.726;9.006;2023-07-20T00:56:35;18.80;97.10
9466;DHT22;4771;48.726;9.006;2023-07-20T00:59:02;18.80;98.50
9466;DHT22;4771;48.726;9.006;2023-07-20T01:01:29;18.70;98.30
9466;DHT22;4771;48.726;9.006;2023-07-20T01:03:56;18.70;98.80
9466;DHT22;4771;48.726;9.006;2023-07-20T01:06:31;18.70;99.40
9466;DHT22;4771;48.726;9.006;2023-07-20T01:09:09;18.60;99.70
9466;DHT22;4771;48.726;9.006;2023-07-20T01:11:46;18.50;99.70
9466;DHT22;4771;48.726;9.006;2023-07-20T01:14:14;18.50;99.90
9466;DHT22;4771;48.726;9.006;2023-07-20T01:16:42;18.40;99.90
9466;DHT22;4771;48.726;9.006;2023-07-20T01:19:09;18.40;99.90
9466;DHT22;4771;48.726;9.006;2023-07-20T01:21:44;18.40;99.90
9466;DHT22;4771;48.726;9.006;2023-07-20T01:24:26;18.30;99.90
9466;DHT22;4771;48.726;9.006;2023-07-20T01:27:15;18.20;99.90
9466;DHT22;4771;48.726;9.006;2023-07-20T01:30:01;18.20;99.90
9466;DHT22;4771;48.726;9.006;2023-07-20T01:32:31;18.10;99.90
9466;DHT22;4771;48.726;9.006;2023-07-20T01:34:59;18.00;99.90
9466;DHT22;4771;48.726;9.006;2023-07-20T01:37:30;18.00;99.90
9466;DHT22;4771;48.726;9.006;2023-07-20T01:39:59;17.90;99.90
9466;DHT22;4771;48.726;9.006;2023-07-20T01:42:26;17.90;99.90
9466;DHT22;4771;48.726;9.006;2023-07-20T01:44:53;17.80;99.90
9466;DHT22;4771;48.726;9.006;2023-07-20T01:47:20;17.80;99.90
9466;DHT22;4771;48.726;9.006;2023-07-20T01:49:49;17.80;99.90
9466;DHT22;4771;48.726;9.006;2023-07-20T01:52:15;17.80;99.90
9466;DHT22;4771;48.726;9.006;2023-07-20T01:54:42;17.70;99.90
9466;DHT22;4771;48.726;9.006;2023-07-20T01:57:09;17.70;99.90
9466;DHT22;4771;48.726;9.006;2023-07-20T01:59:36;17.70;99.90
9466;DHT22;4771;48.726;9.006;2023-07-20T02:02:03;17.60;99.90
9466;DHT22;4771;48.726;9.006;2023-07-20T02:04:30;17.60;99.90
9466;DHT22;4771;48.726;9.006;2023-07-20T02:06:58;17.60;99.90
9466;DHT22;4771;48.726;9.006;2023-07-20T02:09:25;17.50;99.90
9466;DHT22;4771;48.726;9.006;2023-07-20T02:11:52;17.50;99.90
9466;DHT22;4771;48.726;9.006;2023-07-20T02:14:19;17.50;99.90
9466;DHT22;4771;48.726;9.006;2023-07-20T02:16:48;17.50;99.90
9466;DHT22;4771;48.726;9.006;2023-07-20T02:19:18;17.50;99.90
9466;DHT22;4771;48.726;9.006;2023-07-20T02:21:44;17.40;99.90
9466;DHT22;4771;48.726;9.006;2023-07-20T02:24:13;17.40;99.90
9466;DHT22;4771;48.726;9.006;2023-07-20T02:26:40;17.40;99.90
9466;DHT22;4771;48.726;9.006;2023-07-20T02:29:07;17.40;99.90
9466;DHT22;4771;48.726;9.006;2023-07-20T02:31:37;17.30;99.90
9466;DHT22;4771;48.726;9.006;2023-07-20T02:34:05;17.30;99.90
9466;DHT22;4771;48.726;9.006;2023-07-20T02:36:32;17.30;99.90
9466;DHT22;4771;48.726;9.006;2023-07-20T02:38:59;17.20;99.90
9466;DHT22;4771;48.726;9.006;2023-07-20T02:41:29;17.20;99.90
9466;DHT22;4771;48.726;9.006;2023-07-20T02:43:56;17.10;99.90
9466;DHT22;4771;48.726;9.006;2023-07-20T02:46:23;17.10;99.90
9466;DHT22;4771;48.726;9.006;2023-07-20T02:48:50;17.10;99.90
9466;DHT22;4771;48.726;9.006;2023-07-20T02:51:17;17.10;99.90
9466;DHT22;4771;48.726;9.006;2023-07-20T02:53:43;17.00;99.90
9466;DHT22;4771;48.726;9.006;2023-07-20T02:56:10;17.00;99.90
9466;DHT22;4771;48.726;9.006;2023-07-20T02:58:41;17.00;99.90
9466;DHT22;4771;48.726;9.006;2023-07-20T03:01:11;16.90;99.90
9466;DHT22;4771;48.726;9.006;2023-07-20T03:03:38;16.80;99.90
9466;DHT22;4771;48.726;9.006;2023-07-20T03:06:05;16.90;99.90
9466;DHT22;4771;48.726;9.006;2023-07-20T03:08:35;16.80;99.90
9466;DHT22;4771;48.726;9.006;2023-07-20T03:11:02;16.80;99.90
9466;DHT22;4771;48.726;9.006;2023-07-20T03:13:29;16.70;99.90
9466;DHT22;4771;48.726;9.006;2023-07-20T03:15:57;16.70;99.90
9466;DHT22;4771;48.726;9.006;2023-07-20T03:18:24;16.70;99.90
9466;DHT22;4771;48.726;9.006;2023-07-20T03:20:51;16.60;99.90
9466;DHT22;4771;48.726;9.006;2023-07-20T03:23:18;16.60;99.90
9466;DHT22;4771;48.726;9.006;2023-07-20T03:25:45;16.60;99.90
9466;DHT22;4771;48.726;9.006;2023-07-20T03:28:12;16.60;99.90
9466;DHT22;4771;48.726;9.006;2023-07-20T03:30:38;16.60;99.90
9466;DHT22;4771;48.726;9.006;2023-07-20T03:33:07;16.60;99.90
9466;DHT22;4771;48.726;9.006;2023-07-20T03:35:33;16.60;99.90
9466;DHT22;4771;48.726;9.006;2023-07-20T03:38:00;16.50;99.90
9466;DHT22;4771;48.726;9.006;2023-07-20T03:40:27;16.50;99.90
9466;DHT22;4771;48.726;9.006;2023-07-20T03:42:54;16.50;99.90
9466;DHT22;4771;48.726;9.006;2023-07-20T03:45:21;16.50;99.90
9466;DHT22;4771;48.726;9.006;2023-07-20T03:47:49;16.50;99.90
9466;DHT22;4771;48.726;9.006;2023-07-20T03:50:17;16.50;99.90
9466;DHT22;4771;48.726;9.006;2023-07-20T03:52:44;16.40;99.90
9466;DHT22;4771;48.726;9.006;2023-07-20T03:55:11;16.40;99.90
9466;DHT22;4771;48.726;9.006;2023-07-20T03:57:38;16.40;99.90
9466;DHT22;4771;48.726;9.006;2023-07-20T04:00:06;16.40;99.90
9466;DHT22;4771;48.726;9.006;2023-07-20T04:02:33;16.50;99.90
9466;DHT22;4771;48.726;9.006;2023-07-20T04:05:00;16.50;99.90
9466;DHT22;4771;48.726;9.006;2023-07-20T04:07:28;16.50;99.90
9466;DHT22;4771;48.726;9.006;2023-07-20T04:09:55;16.50;99.90
9466;DHT22;4771;48.726;9.006;2023-07-20T04:12:22;16.40;99.90
9466;DHT22;4771;48.726;9.006;2023-07-20T04:14:49;16.50;99.90
9466;DHT22;4771;48.726;9.006;2023-07-20T04:17:15;16.50;99.90
9466;DHT22;4771;48.726;9.006;2023-07-20T04:19:42;16.50;99.90
9466;DHT22;4771;48.726;9.006;2023-07-20T04:22:09;16.50;99.90
9466;DHT22;4771;48.726;9.006;2023-07-20T04:24:37;16.50;99.90
9466;DHT22;4771;48.726;9.006;2023-07-20T04:27:05;16.60;99.90
9466;DHT22;4771;48.726;9.006;2023-07-20T04:29:32;16.60;99.90
9466;DHT22;4771;48.726;9.006;2023-07-20T04:31:58;16.70;99.90
9466;DHT22;4771;48.726;9.006;2023-07-20T04:34:25;16.70;99.90
9466;DHT22;4771;48.726;9.006;2023-07-20T04:36:52;16.70;99.90
9466;DHT22;4771;48.726;9.006;2023-07-20T04:39:19;16.70;99.90
9466;DHT22;4771;48.726;9.006;2023-07-20T04:41:47;16.70;99.90
9466;DHT22;4771;48.726;9.006;2023-07-20T04:44:14;16.80;99.90
9466;DHT22;4771;48.726;9.006;2023-07-20T04:46:41;16.80;99.90
9466;DHT22;4771;48.726;9.006;2023-07-20T04:49:08;16.80;99.90
9466;DHT22;4771;48.726;9.006;2023-07-20T04:51:35;16.80;99.90
9466;DHT22;4771;48.726;9.006;2023-07-20T04:54:01;16.90;99.90
9466;DHT22;4771;48.726;9.006;2023-07-20T04:56:28;16.90;99.90
9466;DHT22;4771;48.726;9.006;2023-07-20T04:58:57;17.00;99.90
9466;DHT22;4771;48.726;9.006;2023-07-20T05:01:23;17.00;99.90
9466;DHT22;4771;48.726;9.006;2023-07-20T05:03:52;17.10;99.90
9466;DHT22;4771;48.726;9.006;2023-07-20T05:06:19;17.10;99.90
9466;DHT22;4771;48.726;9.006;2023-07-20T05:08:46;17.20;99.90
9466;DHT22;4771;48.726;9.006;2023-07-20T05:11:12;17.30;99.90
9466;DHT22;4771;48.726;9.006;2023-07-20T05:13:40;17.30;99.90
9466;DHT22;4771;48.726;9.006;2023-07-20T05:16:08;17.30;99.90
9466;DHT22;4771;48.726;9.006;2023-07-20T05:18:35;17.40;99.90
9466;DHT22;4771;48.726;9.006;2023-07-20T05:21:02;17.40;99.90
9466;DHT22;4771;48.726;9.006;2023-07-20T05:23:29;17.50;99.90
9466;DHT22;4771;48.726;9.006;2023-07-20T05:25:56;17.50;99.90
9466;DHT22;4771;48.726;9.006;2023-07-20T05:28:23;17.60;99.90
9466;DHT22;4771;48.726;9.006;2023-07-20T05:30:50;17.50;99.90
9466;DHT22;4771;48.726;9.006;2023-07-20T05:33:19;17.50;99.90
9466;DHT22;4771;48.726;9.006;2023-07-20T05:35:46;17.30;99.90
9466;DHT22;4771;48.726;9.006;2023-07-20T05:38:13;17.40;99.90
9466;DHT22;4771;48.726;9.006;2023-07-20T05:40:41;17.40;99.90
9466;DHT22;4771;48.726;9.006;2023-07-20T05:43:08;17.40;99.90
9466;DHT22;4771;48.726;9.006;2023-07-20T05:45:35;17.50;99.90
9466;DHT22;4771;48.726;9.006;2023-07-20T05:48:02;17.50;99.90
9466;DHT22;4771;48.726;9.006;2023-07-20T05:50:30;17.40;99.90
9466;DHT22;4771;48.726;9.006;2023-07-20T05:52:57;17.40;99.90
9466;DHT22;4771;48.726;9.006;2023-07-20T05:55:24;17.50;99.90
9466;DHT22;4771;48.726;9.006;2023-07-20T05:57:51;17.50;99.90
9466;DHT22;4771;48.726;9.006;2023-07-20T06:00:20;17.60;99.90
9466;DHT22;4771;48.726;9.006;2023-07-20T06:02:51;17.60;99.90
9466;DHT22;4771;48.726;9.006;2023-07-20T06:05:18;17.50;99.90
9466;DHT22;4771;48.726;9.006;2023-07-20T06:07:47;17.40;99.90
9466;DHT22;4771;48.726;9.006;2023-07-20T06:10:14;17.30;99.90
9466;DHT22;4771;48.726;9.006;2023-07-20T06:12:40;17.30;99.90
9466;DHT22;4771;48.726;9.006;2023-07-20T06:15:24;17.30;99.90
9466;DHT22;4771;48.726;9.006;2023-07-20T06:17:51;17.30;99.90
9466;DHT22;4771;48.726;9.006;2023-07-20T06:20:18;17.40;99.90
9466;DHT22;4771;48.726;9.006;2023-07-20T06:22:46;17.50;99.90
9466;DHT22;4771;48.726;9.006;2023-07-20T06:25:13;17.50;99.90
9466;DHT22;4771;48.726;9.006;2023-07-20T06:27:41;17.50;99.90
9466;DHT22;4771;48.726;9.006;2023-07-20T06:30:09;17.60;99.90
9466;DHT22;4771;48.726;9.006;2023-07-20T06:32:36;17.70;99.90
9466;DHT22;4771;48.726;9.006;2023-07-20T06:35:03;17.80;99.90
9466;DHT22;4771;48.726;9.006;2023-07-20T06:37:30;17.90;99.90
9466;DHT22;4771;48.726;9.006;2023-07-20T06:39:59;18.00;99.90
9466;DHT22;4771;48.726;9.006;2023-07-20T06:42:26;18.10;99.90
9466;DHT22;4771;48.726;9.006;2023-07-20T06:44:53;18.30;99.90
9466;DHT22;4771;48.726;9.006;2023-07-20T06:47:20;18.30;99.90
9466;DHT22;4771;48.726;9.006;2023-07-20T06:49:47;18.50;99.90
9466;DHT22;4771;48.726;9.006;2023-07-20T06:52:14;18.50;99.90
9466;DHT22;4771;48.726;9.006;2023-07-20T06:54:40;18.60;99.90
9466;DHT22;4771;48.726;9.006;2023-07-20T06:57:09;18.60;99.90
9466;DHT22;4771;48.726;9.006;2023-07-20T06:59:35;18.70;99.90
9466;DHT22;4771;48.726;9.006;2023-07-20T07:02:03;18.80;99.90
9466;DHT22;4771;48.726;9.006;2023-07-20T07:04:30;18.80;99.90
9466;DHT22;4771;48.726;9.006;2023-07-20T07:06:56;18.80;99.90
9466;DHT22;4771;48.726;9.006;2023-07-20T07:09:23;18.60;99.90
9466;DHT22;4771;48.726;9.006;2023-07-20T07:11:50;18.50;99.90
9466;DHT22;4771;48.726;9.006;2023-07-20T07:14:20;18.60;99.90
9466;DHT22;4771;48.726;9.006;2023-07-20T07:16:47;18.60;99.90
9466;DHT22;4771;48.726;9.006;2023-07-20T07:19:14;18.70;99.90
9466;DHT22;4771;48.726;9.006;2023-07-20T07:21:40;18.70;99.90
9466;DHT22;4771;48.726;9.006;2023-07-20T07:24:07;18.70;99.90
9466;DHT22;4771;48.726;9.006;2023-07-20T07:26:35;18.80;99.90
9466;DHT22;4771;48.726;9.006;2023-07-20T07:29:02;18.80;99.90
9466;DHT22;4771;48.726;9.006;2023-07-20T07:31:33;18.80;99.90
9466;DHT22;4771;48.726;9.006;2023-07-20T07:34:00;18.80;99.90
9466;DHT22;4771;48.726;9.006;2023-07-20T07:36:28;18.80;99.90
9466;DHT22;4771;48.726;9.006;2023-07-20T07:38:54;18.90;99.90
9466;DHT22;4771;48.726;9.006;2023-07-20T07:41:21;18.90;99.90
9466;DHT22;4771;48.726;9.006;2023-07-20T07:43:48;18.90;99.90
9466;DHT22;4771;48.726;9.006;2023-07-20T07:46:15;19.00;99.90
9466;DHT22;4771;48.726;9.006;2023-07-20T07:48:44;19.10;99.90
9466;DHT22;4771;48.726;9.006;2023-07-20T07:51:11;19.10;99.90
9466;DHT22;4771;48.726;9.006;2023-07-20T07:53:39;19.20;99.90
9466;DHT22;4771;48.726;9.006;2023-07-20T07:56:07;19.20;99.90
9466;DHT22;4771;48.726;9.006;2023-07-20T07:58:34;19.20;99.90
9466;DHT22;4771;48.726;9.006;2023-07-20T08:01:01;19.20;99.90
9466;DHT22;4771;48.726;9.006;2023-07-20T08:03:28;19.40;99.90
9466;DHT22;4771;48.726;9.006;2023-07-20T08:05:56;19.50;99.90
9466;DHT22;4771;48.726;9.006;2023-07-20T08:08:24;19.40;99.90
9466;DHT22;4771;48.726;9.006;2023-07-20T08:10:53;19.50;99.90
9466;DHT22;4771;48.726;9.006;2023-07-20T08:13:21;19.40;99.90
9466;DHT22;4771;48.726;9.006;2023-07-20T08:15:50;19.50;99.90
9466;DHT22;4771;48.726;9.006;2023-07-20T08:18:17;19.50;99.90
9466;DHT22;4771;48.726;9.006;2023-07-20T08:20:44;19.50;99.90
9466;DHT22;4771;48.726;9.006;2023-07-20T08:23:13;19.50;99.90
9466;DHT22;4771;48.726;9.006;2023-07-20T08:25:40;19.50;99.90
9466;DHT22;4771;48.726;9.006;2023-07-20T08:28:09;19.50;99.90
9466;DHT22;4771;48.726;9.006;2023-07-20T08:30:41;19.50;99.90
9466;DHT22;4771;48.726;9.006;2023-07-20T08:33:09;19.50;99.90
9466;DHT22;4771;48.726;9.006;2023-07-20T08:35:36;19.50;99.90
9466;DHT22;4771;48.726;9.006;2023-07-20T08:38:03;19.50;99.90
9466;DHT22;4771;48.726;9.006;2023-07-20T08:40:32;19.50;99.90
9466;DHT22;4771;48.726;9.006;2023-07-20T08:43:00;19.60;99.90
9466;DHT22;4771;48.726;9.006;2023-07-20T08:45:27;19.70;99.90
9466;DHT22;4771;48.726;9.006;2023-07-20T08:47:56;19.80;99.90
9466;DHT22;4771;48.726;9.006;2023-07-20T08:50:25;19.90;96.50
9466;DHT22;4771;48.726;9.006;2023-07-20T08:52:57;19.90;97.60
9466;DHT22;4771;48.726;9.006;2023-07-20T08:55:25;19.90;97.80
9466;DHT22;4771;48.726;9.006;2023-07-20T08:57:55;20.00;98.10
9466;DHT22;4771;48.726;9.006;2023-07-20T09:00:23;20.10;98.80
9466;DHT22;4771;48.726;9.006;2023-07-20T09:02:52;20.20;97.60
9466;DHT22;4771;48.726;9.006;2023-07-20T09:05:19;20.30;97.90
9466;DHT22;4771;48.726;9.006;2023-07-20T09:07:46;20.30;97.90
9466;DHT22;4771;48.726;9.006;2023-07-20T09:10:14;20.40;99.10
9466;DHT22;4771;48.726;9.006;2023-07-20T09:12:42;20.40;98.30
9466;DHT22;4771;48.726;9.006;2023-07-20T09:15:12;20.50;98.80
9466;DHT22;4771;48.726;9.006;2023-07-20T09:17:39;20.50;96.70
9466;DHT22;4771;48.726;9.006;2023-07-20T09:20:07;20.60;97.80
9466;DHT22;4771;48.726;9.006;2023-07-20T09:22:36;20.60;97.30
9466;DHT22;4771;48.726;9.006;2023-07-20T09:25:06;20.80;95.80
9466;DHT22;4771;48.726;9.006;2023-07-20T09:27:38;20.70;93.30
9466;DHT22;4771;48.726;9.006;2023-07-20T09:30:06;20.70;93.10
9466;DHT22;4771;48.726;9.006;2023-07-20T09:32:40;20.70;92.70
9466;DHT22;4771;48.726;9.006;2023-07-20T09:35:13;20.80;90.10
9466;DHT22;4771;48.726;9.006;2023-07-20T09:37:46;20.80;91.80
9466;DHT22;4771;48.726;9.006;2023-07-20T09:40:15;21.00;90.50
9466;DHT22;4771;48.726;9.006;2023-07-20T09:42:43;21.00;90.70
9466;DHT22;4771;48.726;9.006;2023-07-20T09:45:10;21.10;89.10
9466;DHT22;4771;48.726;9.006;2023-07-20T09:47:39;21.20;89.50
9466;DHT22;4771;48.726;9.006;2023-07-20T09:50:07;21.20;92.30
9466;DHT22;4771;48.726;9.006;2023-07-20T09:52:38;21.20;87.70
9466;DHT22;4771;48.726;9.006;2023-07-20T09:55:07;21.20;90.30
9466;DHT22;4771;48.726;9.006;2023-07-20T09:57:35;21.10;87.60
9466;DHT22;4771;48.726;9.006;2023-07-20T10:00:04;21.00;90.10
9466;DHT22;4771;48.726;9.006;2023-07-20T10:02:36;21.10;91.10
9466;DHT22;4771;48.726;9.006;2023-07-20T10:05:09;21.10;90.60
9466;DHT22;4771;48.726;9.006;2023-07-20T10:07:41;21.10;88.00
9466;DHT22;4771;48.726;9.006;2023-07-20T10:10:09;21.00;84.70
9466;DHT22;4771;48.726;9.006;2023-07-20T10:12:39;20.90;87.40
9466;DHT22;4771;48.726;9.006;2023-07-20T10:15:11;21.00;90.00
9466;DHT22;4771;48.726;9.006;2023-07-20T10:17:47;20.90;84.00
9466;DHT22;4771;48.726;9.006;2023-07-20T10:20:19;21.00;85.60
9466;DHT22;4771;48.726;9.006;2023-07-20T10:22:50;21.10;84.40
9466;DHT22;4771;48.726;9.006;2023-07-20T10:25:20;21.20;84.40
9466;DHT22;4771;48.726;9.006;2023-07-20T10:27:49;21.20;81.20
9466;DHT22;4771;48.726;9.006;2023-07-20T10:30:18;21.10;83.20
9466;DHT22;4771;48.726;9.006;2023-07-20T10:32:46;21.10;81.20
9466;DHT22;4771;48.726;9.006;2023-07-20T10:35:14;21.00;79.30
9466;DHT22;4771;48.726;9.006;2023-07-20T10:37:50;21.00;82.00
9466;DHT22;4771;48.726;9.006;2023-07-20T10:40:28;21.10;80.50
9466;DHT22;4771;48.726;9.006;2023-07-20T10:43:04;21.20;75.90
9466;DHT22;4771;48.726;9.006;2023-07-20T10:45:45;21.30;76.30
9466;DHT22;4771;48.726;9.006;2023-07-20T10:48:16;21.40;75.70
9466;DHT22;4771;48.726;9.006;2023-07-20T10:50:43;21.50;75.50
9466;DHT22;4771;48.726;9.006;2023-07-20T10:53:13;21.60;80.80
9466;DHT22;4771;48.726;9.006;2023-07-20T10:55:41;21.90;72.70
9466;DHT22;4771;48.726;9.006;2023-07-20T10:58:10;22.00;68.40
9466;DHT22;4771;48.726;9.006;2023-07-20T11:00:38;22.20;75.40
9466;DHT22;4771;48.726;9.006;2023-07-20T11:03:27;22.20;68.40
9466;DHT22;4771;48.726;9.006;2023-07-20T11:05:54;22.20;69.30
9466;DHT22;4771;48.726;9.006;2023-07-20T11:08:39;22.10;61.20
9466;DHT22;4771;48.726;9.006;2023-07-20T11:11:22;21.90;63.90
9466;DHT22;4771;48.726;9.006;2023-07-20T11:13:56;22.00;66.70
9466;DHT22;4771;48.726;9.006;2023-07-20T11:16:37;22.10;70.70
9466;DHT22;4771;48.726;9.006;2023-07-20T11:19:04;22.20;67.90
9466;DHT22;4771;48.726;9.006;2023-07-20T11:21:36;22.40;63.00
9466;DHT22;4771;48.726;9.006;2023-07-20T11:24:05;22.60;63.40
9466;DHT22;4771;48.726;9.006;2023-07-20T11:26:46;22.70;58.90
9466;DHT22;4771;48.726;9.006;2023-07-20T11:29:14;22.70;60.00
9466;DHT22;4771;48.726;9.006;2023-07-20T11:31:43;22.70;58.30
9466;DHT22;4771;48.726;9.006;2023-07-20T11:34:12;22.60;57.70
9466;DHT22;4771;48.726;9.006;2023-07-20T11:36:40;22.60;58.10
9466;DHT22;4771;48.726;9.006;2023-07-20T11:39:10;22.80;56.00
9466;DHT22;4771;48.726;9.006;2023-07-20T11:41:37;22.90;54.70
9466;DHT22;4771;48.726;9.006;2023-07-20T11:44:05;23.00;55.90
9466;DHT22;4771;48.726;9.006;2023-07-20T11:46:33;22.90;52.40
9466;DHT22;4771;48.726;9.006;2023-07-20T11:49:01;22.80;53.70
9466;DHT22;4771;48.726;9.006;2023-07-20T11:51:29;22.70;52.00
9466;DHT22;4771;48.726;9.006;2023-07-20T11:53:56;22.70;54.80
9466;DHT22;4771;48.726;9.006;2023-07-20T11:56:26;22.80;54.10
9466;DHT22;4771;48.726;9.006;2023-07-20T11:58:55;22.80;54.90
9466;DHT22;4771;48.726;9.006;2023-07-20T12:01:25;22.80;55.20
9466;DHT22;4771;48.726;9.006;2023-07-20T12:03:55;22.90;55.30
9466;DHT22;4771;48.726;9.006;2023-07-20T12:06:23;23.00;55.90
9466;DHT22;4771;48.726;9.006;2023-07-20T12:08:53;23.20;54.90
9466;DHT22;4771;48.726;9.006;2023-07-20T12:11:37;23.20;50.30
9466;DHT22;4771;48.726;9.006;2023-07-20T12:14:07;23.20;49.60
9466;DHT22;4771;48.726;9.006;2023-07-20T12:16:35;23.30;56.60
9466;DHT22;4771;48.726;9.006;2023-07-20T12:19:05;23.50;50.80
9466;DHT22;4771;48.726;9.006;2023-07-20T12:21:34;23.60;49.30
9466;DHT22;4771;48.726;9.006;2023-07-20T12:24:02;23.70;49.30
9466;DHT22;4771;48.726;9.006;2023-07-20T12:26:30;23.90;50.80
9466;DHT22;4771;48.726;9.006;2023-07-20T12:28:58;24.00;49.40
9466;DHT22;4771;48.726;9.006;2023-07-20T12:31:26;24.20;46.10
9466;DHT22;4771;48.726;9.006;2023-07-20T12:33:54;24.10;46.00
9466;DHT22;4771;48.726;9.006;2023-07-20T12:36:21;24.10;46.10
9466;DHT22;4771;48.726;9.006;2023-07-20T12:38:48;24.10;48.40
9466;DHT22;4771;48.726;9.006;2023-07-20T12:41:15;24.10;46.00
9466;DHT22;4771;48.726;9.006;2023-07-20T12:43:43;24.20;46.00
9466;DHT22;4771;48.726;9.006;2023-07-20T12:46:12;24.30;45.60
9466;DHT22;4771;48.726;9.006;2023-07-20T12:48:40;24.40;42.50
9466;DHT22;4771;48.726;9.006;2023-07-20T12:51:08;24.20;40.60
9466;DHT22;4771;48.726;9.006;2023-07-20T12:53:35;24.10;41.30
9466;DHT22;4771;48.726;9.006;2023-07-20T12:56:03;24.10;41.40
9466;DHT22;4771;48.726;9.006;2023-07-20T12:58:30;24.00;41.70
9466;DHT22;4771;48.726;9.006;2023-07-20T13:00:56;24.00;42.90
9466;DHT22;4771;48.726;9.006;2023-07-20T13:03:25;24.20;44.20
9466;DHT22;4771;48.726;9.006;2023-07-20T13:05:52;24.40;41.80
9466;DHT22;4771;48.726;9.006;2023-07-20T13:08:19;24.50;40.70
9466;DHT22;4771;48.726;9.006;2023-07-20T13:10:46;24.70;42.30
9466;DHT22;4771;48.726;9.006;2023-07-20T13:13:14;24.70;37.90
9466;DHT22;4771;48.726;9.006;2023-07-20T13:15:42;24.80;39.30
9466;DHT22;4771;48.726;9.006;2023-07-20T13:18:09;24.80;36.30
9466;DHT22;4771;48.726;9.006;2023-07-20T13:20:38;24.70;34.90
9466;DHT22;4771;48.726;9.006;2023-07-20T13:23:05;24.70;35.30
9466;DHT22;4771;48.726;9.006;2023-07-20T13:25:32;24.80;38.20
9466;DHT22;4771;48.726;9.006;2023-07-20T13:27:59;24.80;36.10
9466;DHT22;4771;48.726;9.006;2023-07-20T13:30:26;24.80;33.90
9466;DHT22;4771;48.726;9.006;2023-07-20T13:32:54;24.90;34.90
9466;DHT22;4771;48.726;9.006;2023-07-20T13:35:21;25.00;34.30
9466;DHT22;4771;48.726;9.006;2023-07-20T13:37:49;24.50;31.40
9466;DHT22;4771;48.726;9.006;2023-07-20T13:40:16;24.40;33.60
9466;DHT22;4771;48.726;9.006;2023-07-20T13:42:44;24.60;32.40
9466;DHT22;4771;48.726;9.006;2023-07-20T13:45:11;24.70;38.90
9466;DHT22;4771;48.726;9.006;2023-07-20T13:47:38;24.90;36.90
9466;DHT22;4771;48.726;9.006;2023-07-20T13:50:06;25.10;35.90
9466;DHT22;4771;48.726;9.006;2023-07-20T13:52:33;25.20;34.20
9466;DHT22;4771;48.726;9.006;2023-07-20T13:55:02;25.30;31.00
9466;DHT22;4771;48.726;9.006;2023-07-20T13:57:30;25.40;35.10
9466;DHT22;4771;48.726;9.006;2023-07-20T13:59:56;25.50;31.70
9466;DHT22;4771;48.726;9.006;2023-07-20T14:02:25;25.60;33.40
9466;DHT22;4771;48.726;9.006;2023-07-20T14:04:52;25.60;29.90
9466;DHT22;4771;48.726;9.006;2023-07-20T14:07:21;25.70;30.90
9466;DHT22;4771;48.726;9.006;2023-07-20T14:09:48;25.70;30.50
9466;DHT22;4771;48.726;9.006;2023-07-20T14:12:16;25.60;30.30
9466;DHT22;4771;48.726;9.006;2023-07-20T14:14:43;25.90;31.70
9466;DHT22;4771;48.726;9.006;2023-07-20T14:17:10;26.00;30.00
9466;DHT22;4771;48.726;9.006;2023-07-20T14:19:38;26.00;30.10
9466;DHT22;4771;48.726;9.006;2023-07-20T14:22:05;26.10;31.40
9466;DHT22;4771;48.726;9.006;2023-07-20T14:24:32;26.20;29.70
9466;DHT22;4771;48.726;9.006;2023-07-20T14:26:59;26.20;29.30
9466;DHT22;4771;48.726;9.006;2023-07-20T14:29:28;26.30;31.30
9466;DHT22;4771;48.726;9.006;2023-07-20T14:31:57;26.40;30.60
9466;DHT22;4771;48.726;9.006;2023-07-20T14:34:24;26.40;28.80
9466;DHT22;4771;48.726;9.006;2023-07-20T14:36:51;26.40;29.40
9466;DHT22;4771;48.726;9.006;2023-07-20T14:39:18;26.30;27.90
9466;DHT22;4771;48.726;9.006;2023-07-20T14:41:45;26.30;28.70
9466;DHT22;4771;48.726;9.006;2023-07-20T14:44:12;26.30;29.30
9466;DHT22;4771;48.726;9.006;2023-07-20T14:46:40;26.20;29.50
9466;DHT22;4771;48.726;9.006;2023-07-20T14:49:07;26.20;28.60
9466;DHT22;4771;48.726;9.006;2023-07-20T14:51:35;26.20;27.30
9466;DHT22;4771;48.726;9.006;2023-07-20T14:54:08;26.20;28.40
9466;DHT22;4771;48.726;9.006;2023-07-20T14:56:35;26.20;28.30
9466;DHT22;4771;48.726;9.006;2023-07-20T14:59:03;26.30;28.60
9466;DHT22;4771;48.726;9.006;2023-07-20T15:01:31;26.30;30.10
9466;DHT22;4771;48.726;9.006;2023-07-20T15:03:59;26.30;28.50
9466;DHT22;4771;48.726;9.006;2023-07-20T15:06:26;26.40;28.10
9466;DHT22;4771;48.726;9.006;2023-07-20T15:08:56;26.20;27.80
9466;DHT22;4771;48.726;9.006;2023-07-20T15:11:23;26.30;28.70
9466;DHT22;4771;48.726;9.006;2023-07-20T15:13:49;26.30;28.10
9466;DHT22;4771;48.726;9.006;2023-07-20T15:16:16;26.30;27.40
9466;DHT22;4771;48.726;9.006;2023-07-20T15:18:43;26.30;27.90
9466;DHT22;4771;48.726;9.006;2023-07-20T15:21:12;26.30;27.30
9466;DHT22;4771;48.726;9.006;2023-07-20T15:23:39;26.30;27.10
9466;DHT22;4771;48.726;9.006;2023-07-20T15:26:06;26.30;29.50
9466;DHT22;4771;48.726;9.006;2023-07-20T15:28:33;26.30;29.10
9466;DHT22;4771;48.726;9.006;2023-07-20T15:31:00;26.30;27.40
9466;DHT22;4771;48.726;9.006;2023-07-20T15:33:27;26.30;27.30
9466;DHT22;4771;48.726;9.006;2023-07-20T15:35:54;26.40;28.10
9466;DHT22;4771;48.726;9.006;2023-07-20T15:38:23;26.40;27.70
9466;DHT22;4771;48.726;9.006;2023-07-20T15:40:50;26.40;27.40
9466;DHT22;4771;48.726;9.006;2023-07-20T15:43:17;26.40;28.30
9466;DHT22;4771;48.726;9.006;2023-07-20T15:45:47;26.40;28.00
9466;DHT22;4771;48.726;9.006;2023-07-20T15:48:15;26.40;28.70
9466;DHT22;4771;48.726;9.006;2023-07-20T15:50:42;26.40;29.40
9466;DHT22;4771;48.726;9.006;2023-07-20T15:53:09;26.40;28.60
9466;DHT22;4771;48.726;9.006;2023-07-20T15:55:38;26.30;28.50
9466;DHT22;4771;48.726;9.006;2023-07-20T15:58:04;26.20;28.10
9466;DHT22;4771;48.726;9.006;2023-07-20T16:00:31;26.20;27.80
9466;DHT22;4771;48.726;9.006;2023-07-20T16:02:58;26.10;26.80
9466;DHT22;4771;48.726;9.006;2023-07-20T16:05:25;25.90;26.40
9466;DHT22;4771;48.726;9.006;2023-07-20T16:07:52;25.80;26.80